sensor_id;sensor_type;location;lat;lon;timestamp;pressure;altitude;pressure_sealevel;temperature;humidity
75699;BME280;64313;51.018;13.742;2022-11-18T00:00:03;98136.66;;;5.20;85.90
75699;BME280;64313;51.018;13.742;2022-11-18T00:02:30;98136.47;;;5.22;85.63
75699;BME280;64313;51.018;13.742;2022-11-18T00:04:56;98137.25;;;5.23;85.53
75699;BME280;64313;51.018;13.742;2022-11-18T00:07:23;98142.38;;;5.24;85.68
75699;BME280;64313;51.018;13.742;2022-11-18T00:09:48;98141.34;;;5.25;85.28
75699;BME280;64313;51.018;13.742;2022-11-18T00:12:14;98143.19;;;5.25;85.31
75699;BME280;64313;51.018;13.742;2022-11-18T00:14:58;98139.72;;;5.24;85.45
75699;BME280;64313;51.018;13.742;2022-11-18T00:17:23;98139.72;;;5.24;85.40
75699;BME280;64313;51.018;13.742;2022-11-18T00:19:49;98143.19;;;5.25;85.66
75699;BME280;64313;51.018;13.742;2022-11-18T00:22:14;98133.41;;;5.25;85.51
75699;BME280;64313;51.018;13.742;2022-11-18T00:24:41;98133.41;;;5.25;85.83
75699;BME280;64313;51.018;13.742;2022-11-18T00:27:06;98134.81;;;5.28;85.25
75699;BME280;64313;51.018;13.742;2022-11-18T00:29:31;98131.13;;;5.29;85.15
75699;BME280;64313;51.018;13.742;2022-11-18T00:31:57;98133.19;;;5.27;85.28
75699;BME280;64313;51.018;13.742;2022-11-18T00:34:23;98127.06;;;5.26;85.58
75699;BME280;64313;51.018;13.742;2022-11-18T00:36:49;98129.72;;;5.26;85.51
75699;BME280;64313;51.018;13.742;2022-11-18T00:39:16;98129.94;;;5.25;85.50
75699;BME280;64313;51.018;13.742;2022-11-18T00:41:43;98137.06;;;5.24;85.62
75699;BME280;64313;51.018;13.742;2022-11-18T00:44:26;98134.19;;;5.26;85.56
75699;BME280;64313;51.018;13.742;2022-11-18T00:46:52;98136.84;;;5.26;85.43
75699;BME280;64313;51.018;13.742;2022-11-18T00:49:18;98139.50;;;5.26;85.59
75699;BME280;64313;51.018;13.742;2022-11-18T00:51:43;98139.50;;;5.26;85.60
75699;BME280;64313;51.018;13.742;2022-11-18T00:54:09;98140.31;;;5.26;85.53
75699;BME280;64313;51.018;13.742;2022-11-18T00:56:34;98138.69;;;5.25;85.83
75699;BME280;64313;51.018;13.742;2022-11-18T00:58:59;98139.50;;;5.26;85.70
75699;BME280;64313;51.018;13.742;2022-11-18T01:01:25;98137.66;;;5.26;85.65
75699;BME280;64313;51.018;13.742;2022-11-18T01:03:50;98139.50;;;5.26;85.86
75699;BME280;64313;51.018;13.742;2022-11-18T01:06:16;98137.66;;;5.26;85.52
75699;BME280;64313;51.018;13.742;2022-11-18T01:08:41;98134.19;;;5.26;85.73
75699;BME280;64313;51.018;13.742;2022-11-18T01:11:08;98143.78;;;5.27;85.43
75699;BME280;64313;51.018;13.742;2022-11-18T01:13:53;98151.94;;;5.25;85.95
75699;BME280;64313;51.018;13.742;2022-11-18T01:16:20;98145.84;;;5.25;85.78
75699;BME280;64313;51.018;13.742;2022-11-18T01:18:46;98150.31;;;5.24;85.76
75699;BME280;64313;51.018;13.742;2022-11-18T01:21:11;98142.38;;;5.24;86.22
75699;BME280;64313;51.018;13.742;2022-11-18T01:23:37;98151.13;;;5.25;85.85
75699;BME280;64313;51.018;13.742;2022-11-18T01:26:13;98139.72;;;5.24;86.05
75699;BME280;64313;51.018;13.742;2022-11-18T01:28:39;98129.94;;;5.25;85.86
75699;BME280;64313;51.018;13.742;2022-11-18T01:31:07;98130.94;;;5.24;86.25
75699;BME280;64313;51.018;13.742;2022-11-18T01:33:33;98126.47;;;5.24;86.26
75699;BME280;64313;51.018;13.742;2022-11-18T01:35:59;98139.72;;;5.24;85.71
75699;BME280;64313;51.018;13.742;2022-11-18T01:38:24;98124.81;;;5.23;85.99
75699;BME280;64313;51.018;13.742;2022-11-18T01:40:53;98131.16;;;5.22;86.22
75699;BME280;64313;51.018;13.742;2022-11-18T01:43:20;98132.16;;;5.21;86.15
75699;BME280;64313;51.018;13.742;2022-11-18T01:45:49;98131.97;;;5.23;86.04
75699;BME280;64313;51.018;13.742;2022-11-18T01:48:28;98135.44;;;5.23;85.93
75699;BME280;64313;51.018;13.742;2022-11-18T01:51:12;98134.44;;;5.24;85.90
75699;BME280;64313;51.018;13.742;2022-11-18T01:53:44;98137.88;;;5.25;85.92
75699;BME280;64313;51.018;13.742;2022-11-18T01:56:14;98130.13;;;5.23;86.24
75699;BME280;64313;51.018;13.742;2022-11-18T01:58:56;98131.16;;;5.22;86.42
75699;BME280;64313;51.018;13.742;2022-11-18T02:01:23;98133.81;;;5.22;85.89
75699;BME280;64313;51.018;13.742;2022-11-18T02:03:49;98137.47;;;5.21;86.09
75699;BME280;64313;51.018;13.742;2022-11-18T02:06:16;98137.25;;;5.23;86.12
75699;BME280;64313;51.018;13.742;2022-11-18T02:08:42;98139.91;;;5.23;85.74
75699;BME280;64313;51.018;13.742;2022-11-18T02:11:10;98141.75;;;5.22;86.10
75699;BME280;64313;51.018;13.742;2022-11-18T02:13:55;98133.19;;;5.20;86.03
75699;BME280;64313;51.018;13.742;2022-11-18T02:16:21;98134.19;;;5.19;85.90
75699;BME280;64313;51.018;13.742;2022-11-18T02:18:55;98135.84;;;5.20;86.30
75699;BME280;64313;51.018;13.742;2022-11-18T02:24:25;98128.09;;;5.18;85.92
75699;BME280;64313;51.018;13.742;2022-11-18T02:29:57;98126.47;;;5.17;86.20
75699;BME280;64313;51.018;13.742;2022-11-18T02:32:50;98126.66;;;5.16;86.32
75699;BME280;64313;51.018;13.742;2022-11-18T02:35:26;98117.91;;;5.15;86.14
75699;BME280;64313;51.018;13.742;2022-11-18T02:38:04;98117.91;;;5.15;86.31
75699;BME280;64313;51.018;13.742;2022-11-18T02:40:44;98111.00;;;5.14;86.46
75699;BME280;64313;51.018;13.742;2022-11-18T02:43:32;98108.72;;;5.18;86.58
75699;BME280;64313;51.018;13.742;2022-11-18T02:46:06;98108.13;;;5.16;86.33
75699;BME280;64313;51.018;13.742;2022-11-18T02:48:37;98119.75;;;5.15;86.46
75699;BME280;64313;51.018;13.742;2022-11-18T02:51:05;98115.44;;;5.14;86.51
75699;BME280;64313;51.018;13.742;2022-11-18T02:53:34;98114.44;;;5.15;86.53
75699;BME280;64313;51.018;13.742;2022-11-18T02:56:01;98117.09;;;5.15;86.39
75699;BME280;64313;51.018;13.742;2022-11-18T02:58:27;98117.91;;;5.15;86.33
75699;BME280;64313;51.018;13.742;2022-11-18T03:00:57;98117.91;;;5.15;86.53
75699;BME280;64313;51.018;13.742;2022-11-18T03:03:30;98120.56;;;5.15;86.53
75699;BME280;64313;51.018;13.742;2022-11-18T03:08:41;98123.19;;;5.15;86.48
75699;BME280;64313;51.018;13.742;2022-11-18T03:11:30;98108.94;;;5.16;86.31
75699;BME280;64313;51.018;13.742;2022-11-18T03:16:57;98117.91;;;5.15;86.45
75699;BME280;64313;51.018;13.742;2022-11-18T03:19:39;98116.06;;;5.16;86.23
75699;BME280;64313;51.018;13.742;2022-11-18T03:22:22;98121.38;;;5.16;86.37
75699;BME280;64313;51.018;13.742;2022-11-18T03:25:04;98119.75;;;5.15;86.77
75699;BME280;64313;51.018;13.742;2022-11-18T03:27:45;98115.25;;;5.15;86.75
75699;BME280;64313;51.018;13.742;2022-11-18T03:30:18;98129.13;;;5.17;86.58
75699;BME280;64313;51.018;13.742;2022-11-18T03:32:50;98125.84;;;5.15;86.66
75699;BME280;64313;51.018;13.742;2022-11-18T03:35:24;98124.00;;;5.16;86.33
75699;BME280;64313;51.018;13.742;2022-11-18T03:37:58;98118.72;;;5.16;86.55
75699;BME280;64313;51.018;13.742;2022-11-18T03:40:28;98119.53;;;5.16;86.48
75699;BME280;64313;51.018;13.742;2022-11-18T03:43:02;98122.16;;;5.16;86.35
75699;BME280;64313;51.018;13.742;2022-11-18T03:45:33;98129.31;;;5.16;86.54
75699;BME280;64313;51.018;13.742;2022-11-18T03:48:08;98129.94;;;5.18;86.62
75699;BME280;64313;51.018;13.742;2022-11-18T03:50:39;98135.22;;;5.18;86.39
75699;BME280;64313;51.018;13.742;2022-11-18T03:53:07;98131.97;;;5.16;86.40
75699;BME280;64313;51.018;13.742;2022-11-18T03:55:39;98140.72;;;5.16;86.50
75699;BME280;64313;51.018;13.742;2022-11-18T03:58:14;98147.66;;;5.17;86.41
75699;BME280;64313;51.018;13.742;2022-11-18T04:00:47;98143.97;;;5.18;86.22
75699;BME280;64313;51.018;13.742;2022-11-18T04:03:14;98149.28;;;5.18;86.38
75699;BME280;64313;51.018;13.742;2022-11-18T04:05:41;98151.31;;;5.16;86.38
75699;BME280;64313;51.018;13.742;2022-11-18T04:08:12;98157.03;;;5.20;86.49
75699;BME280;64313;51.018;13.742;2022-11-18T04:10:46;98161.09;;;5.23;85.90
75699;BME280;64313;51.018;13.742;2022-11-18T04:15:41;98155.38;;;5.19;86.67
75699;BME280;64313;51.018;13.742;2022-11-18T04:18:07;98153.94;;;5.16;86.44
75699;BME280;64313;51.018;13.742;2022-11-18T04:20:33;98157.44;;;5.17;86.56
75699;BME280;64313;51.018;13.742;2022-11-18T04:22:59;98159.06;;;5.18;86.53
75699;BME280;64313;51.018;13.742;2022-11-18T04:25:24;98160.69;;;5.19;86.52
75699;BME280;64313;51.018;13.742;2022-11-18T04:27:50;98159.88;;;5.18;86.90
75699;BME280;64313;51.018;13.742;2022-11-18T04:30:16;98163.56;;;5.17;86.92
75699;BME280;64313;51.018;13.742;2022-11-18T04:32:41;98156.41;;;5.18;87.11
75699;BME280;64313;51.018;13.742;2022-11-18T04:35:07;98159.06;;;5.18;86.74
75699;BME280;64313;51.018;13.742;2022-11-18T04:37:32;98159.06;;;5.18;86.88
75699;BME280;64313;51.018;13.742;2022-11-18T04:39:57;98158.88;;;5.19;86.69
75699;BME280;64313;51.018;13.742;2022-11-18T04:42:24;98157.22;;;5.18;86.79
75699;BME280;64313;51.018;13.742;2022-11-18T04:44:49;98156.22;;;5.19;86.72
75699;BME280;64313;51.018;13.742;2022-11-18T04:47:15;98155.38;;;5.19;86.64
75699;BME280;64313;51.018;13.742;2022-11-18T04:49:40;98157.03;;;5.20;86.75
75699;BME280;64313;51.018;13.742;2022-11-18T04:52:05;98156.00;;;5.21;86.81
75699;BME280;64313;51.018;13.742;2022-11-18T04:54:31;98149.91;;;5.20;86.62
75699;BME280;64313;51.018;13.742;2022-11-18T04:56:56;98159.88;;;5.18;86.88
75699;BME280;64313;51.018;13.742;2022-11-18T04:59:27;98162.31;;;5.20;86.90
75699;BME280;64313;51.018;13.742;2022-11-18T05:01:53;98168.63;;;5.19;86.99
75699;BME280;64313;51.018;13.742;2022-11-18T05:04:22;98165.38;;;5.17;87.40
75699;BME280;64313;51.018;13.742;2022-11-18T05:06:48;98165.56;;;5.15;87.18
75699;BME280;64313;51.018;13.742;2022-11-18T05:09:13;98165.19;;;5.12;86.72
75699;BME280;64313;51.018;13.742;2022-11-18T05:11:39;98177.41;;;5.13;86.70
75699;BME280;64313;51.018;13.742;2022-11-18T05:14:26;98177.81;;;5.10;86.49
75699;BME280;64313;51.018;13.742;2022-11-18T05:16:53;98178.22;;;5.07;86.82
75699;BME280;64313;51.018;13.742;2022-11-18T05:19:19;98178.81;;;5.02;86.16
75699;BME280;64313;51.018;13.742;2022-11-18T05:21:44;98178.19;;;5.00;86.47
75699;BME280;64313;51.018;13.742;2022-11-18T05:24:10;98174.13;;;4.97;86.14
75699;BME280;64313;51.018;13.742;2022-11-18T05:26:35;98173.28;;;4.90;86.07
75699;BME280;64313;51.018;13.742;2022-11-18T05:29:01;98178.19;;;4.87;85.93
75699;BME280;64313;51.018;13.742;2022-11-18T05:31:26;98183.66;;;4.85;85.80
75699;BME280;64313;51.018;13.742;2022-11-18T05:33:52;98191.59;;;4.85;85.74
75699;BME280;64313;51.018;13.742;2022-11-18T05:36:19;98193.22;;;4.80;85.10
75699;BME280;64313;51.018;13.742;2022-11-18T05:38:45;98202.78;;;4.81;85.97
75699;BME280;64313;51.018;13.742;2022-11-18T05:41:11;98205.66;;;4.79;84.86
75699;BME280;64313;51.018;13.742;2022-11-18T05:43:55;98201.34;;;4.71;85.04
75699;BME280;64313;51.018;13.742;2022-11-18T05:46:21;98205.44;;;4.74;85.38
75699;BME280;64313;51.018;13.742;2022-11-18T05:48:46;98211.50;;;4.68;84.98
75699;BME280;64313;51.018;13.742;2022-11-18T05:51:11;98208.63;;;4.63;84.76
75699;BME280;64313;51.018;13.742;2022-11-18T05:53:37;98206.41;;;4.60;84.84
75699;BME280;64313;51.018;13.742;2022-11-18T05:56:18;98216.75;;;4.54;83.88
75699;BME280;64313;51.018;13.742;2022-11-18T05:58:45;98221.25;;;4.54;85.17
75699;BME280;64313;51.018;13.742;2022-11-18T06:01:11;98224.06;;;4.52;84.74
75699;BME280;64313;51.018;13.742;2022-11-18T06:03:39;98235.47;;;4.53;85.00
75699;BME280;64313;51.018;13.742;2022-11-18T06:06:06;98230.38;;;4.51;85.10
75699;BME280;64313;51.018;13.742;2022-11-18T06:08:36;98245.41;;;4.51;85.04
75699;BME280;64313;51.018;13.742;2022-11-18T06:11:04;98237.69;;;4.49;84.59
75699;BME280;64313;51.018;13.742;2022-11-18T06:13:37;98241.72;;;4.45;85.01
75699;BME280;64313;51.018;13.742;2022-11-18T06:16:04;98243.56;;;4.45;85.10
75699;BME280;64313;51.018;13.742;2022-11-18T06:18:32;98243.97;;;4.42;85.10
75699;BME280;64313;51.018;13.742;2022-11-18T06:21:00;98239.88;;;4.39;85.11
75699;BME280;64313;51.018;13.742;2022-11-18T06:23:29;98241.91;;;4.37;85.10
75699;BME280;64313;51.018;13.742;2022-11-18T06:25:55;98253.69;;;4.34;85.50
75699;BME280;64313;51.018;13.742;2022-11-18T06:28:21;98252.88;;;4.34;85.70
75699;BME280;64313;51.018;13.742;2022-11-18T06:30:46;98257.97;;;4.36;85.26
75699;BME280;64313;51.018;13.742;2022-11-18T06:33:11;98260.38;;;4.30;85.11
75699;BME280;64313;51.018;13.742;2022-11-18T06:35:37;98258.56;;;4.31;85.27
75699;BME280;64313;51.018;13.742;2022-11-18T06:38:02;98271.97;;;4.29;84.56
75699;BME280;64313;51.018;13.742;2022-11-18T06:40:28;98262.22;;;4.30;85.34
75699;BME280;64313;51.018;13.742;2022-11-18T06:42:53;98272.16;;;4.28;84.54
75699;BME280;64313;51.018;13.742;2022-11-18T06:45:37;98276.63;;;4.27;84.34
75699;BME280;64313;51.018;13.742;2022-11-18T06:48:03;98281.28;;;4.19;84.33
75699;BME280;64313;51.018;13.742;2022-11-18T06:50:29;98271.50;;;4.19;84.49
75699;BME280;64313;51.018;13.742;2022-11-18T06:52:55;98279.63;;;4.18;84.55
75699;BME280;64313;51.018;13.742;2022-11-18T06:55:23;98286.34;;;4.14;84.54
75699;BME280;64313;51.018;13.742;2022-11-18T06:57:48;98294.88;;;4.16;84.85
75699;BME280;64313;51.018;13.742;2022-11-18T07:00:14;98296.91;;;4.14;84.26
75699;BME280;64313;51.018;13.742;2022-11-18T07:02:40;98298.13;;;4.11;84.79
75699;BME280;64313;51.018;13.742;2022-11-18T07:05:05;98296.28;;;4.11;84.34
75699;BME280;64313;51.018;13.742;2022-11-18T07:07:34;98307.25;;;4.08;84.15
75699;BME280;64313;51.018;13.742;2022-11-18T07:10:00;98302.31;;;4.05;84.60
75699;BME280;64313;51.018;13.742;2022-11-18T07:12:25;98304.38;;;4.03;84.40
75699;BME280;64313;51.018;13.742;2022-11-18T07:14:50;98313.03;;;3.97;84.47
75699;BME280;64313;51.018;13.742;2022-11-18T07:17:15;98311.81;;;3.93;84.72
75699;BME280;64313;51.018;13.742;2022-11-18T07:19:41;98320.09;;;3.90;84.30
75699;BME280;64313;51.018;13.742;2022-11-18T07:22:06;98322.56;;;3.92;84.66
75699;BME280;64313;51.018;13.742;2022-11-18T07:24:32;98316.47;;;3.91;84.13
75699;BME280;64313;51.018;13.742;2022-11-18T07:26:58;98313.44;;;3.94;84.15
75699;BME280;64313;51.018;13.742;2022-11-18T07:29:24;98324.56;;;3.89;84.19
75699;BME280;64313;51.018;13.742;2022-11-18T07:31:49;98323.75;;;3.89;84.07
75699;BME280;64313;51.018;13.742;2022-11-18T07:34:14;98331.63;;;3.82;83.94
75699;BME280;64313;51.018;13.742;2022-11-18T07:36:40;98331.84;;;3.81;83.72
75699;BME280;64313;51.018;13.742;2022-11-18T07:39:06;98340.97;;;3.78;83.64
75699;BME280;64313;51.018;13.742;2022-11-18T07:41:32;98337.44;;;3.71;83.50
75699;BME280;64313;51.018;13.742;2022-11-18T07:43:58;98340.63;;;3.66;83.77
75699;BME280;64313;51.018;13.742;2022-11-18T07:46:29;98336.56;;;3.64;84.10
75699;BME280;64313;51.018;13.742;2022-11-18T07:48:56;98335.34;;;3.66;84.22
75699;BME280;64313;51.018;13.742;2022-11-18T07:51:27;98343.66;;;3.63;83.50
75699;BME280;64313;51.018;13.742;2022-11-18T07:53:53;98348.31;;;3.61;83.42
75699;BME280;64313;51.018;13.742;2022-11-18T07:56:19;98351.34;;;3.58;83.95
75699;BME280;64313;51.018;13.742;2022-11-18T07:58:45;98351.50;;;3.57;83.57
75699;BME280;64313;51.018;13.742;2022-11-18T08:01:13;98356.97;;;3.55;83.32
75699;BME280;64313;51.018;13.742;2022-11-18T08:03:39;98356.97;;;3.55;83.38
75699;BME280;64313;51.018;13.742;2022-11-18T08:06:07;98359.63;;;3.55;83.60
75699;BME280;64313;51.018;13.742;2022-11-18T08:08:33;98362.06;;;3.57;83.60
75699;BME280;64313;51.018;13.742;2022-11-18T08:11:00;98367.75;;;3.54;83.45
75699;BME280;64313;51.018;13.742;2022-11-18T08:13:26;98361.00;;;3.51;83.02
75699;BME280;64313;51.018;13.742;2022-11-18T08:15:53;98358.94;;;3.46;83.24
75699;BME280;64313;51.018;13.742;2022-11-18T08:18:19;98368.31;;;3.49;83.10
75699;BME280;64313;51.018;13.742;2022-11-18T08:20:44;98371.31;;;3.46;83.11
75699;BME280;64313;51.018;13.742;2022-11-18T08:23:11;98376.59;;;3.46;83.17
75699;BME280;64313;51.018;13.742;2022-11-18T08:25:36;98372.13;;;3.46;83.41
75699;BME280;64313;51.018;13.742;2022-11-18T08:28:01;98375.16;;;3.43;83.64
75699;BME280;64313;51.018;13.742;2022-11-18T08:30:27;98378.59;;;3.44;83.45
75699;BME280;64313;51.018;13.742;2022-11-18T08:32:52;98380.22;;;3.45;83.41
75699;BME280;64313;51.018;13.742;2022-11-18T08:35:17;98378.06;;;3.49;83.33
75699;BME280;64313;51.018;13.742;2022-11-18T08:37:43;98380.50;;;3.50;82.59
75699;BME280;64313;51.018;13.742;2022-11-18T08:40:08;98390.25;;;3.50;81.92
75699;BME280;64313;51.018;13.742;2022-11-18T08:42:34;98383.25;;;3.42;82.63
75699;BME280;64313;51.018;13.742;2022-11-18T08:45:02;98376.09;;;3.36;82.33
75699;BME280;64313;51.018;13.742;2022-11-18T08:47:28;98385.00;;;3.35;82.41
75699;BME280;64313;51.018;13.742;2022-11-18T08:49:53;98382.34;;;3.35;82.48
75699;BME280;64313;51.018;13.742;2022-11-18T08:52:19;98392.75;;;3.36;83.08
75699;BME280;64313;51.018;13.742;2022-11-18T08:54:44;98387.47;;;3.36;82.58
75699;BME280;64313;51.018;13.742;2022-11-18T08:57:09;98394.56;;;3.36;82.78
75699;BME280;64313;51.018;13.742;2022-11-18T08:59:35;98396.97;;;3.31;82.85
75699;BME280;64313;51.018;13.742;2022-11-18T09:02:00;98394.56;;;3.36;82.79
75699;BME280;64313;51.018;13.742;2022-11-18T09:04:25;98394.75;;;3.34;82.38
75699;BME280;64313;51.018;13.742;2022-11-18T09:06:51;98394.50;;;3.29;82.25
75699;BME280;64313;51.018;13.742;2022-11-18T09:09:16;98405.25;;;3.28;82.11
75699;BME280;64313;51.018;13.742;2022-11-18T09:11:41;98408.06;;;3.26;82.27
75699;BME280;64313;51.018;13.742;2022-11-18T09:14:09;98415.91;;;3.19;82.52
75699;BME280;64313;51.018;13.742;2022-11-18T09:16:35;98419.19;;;3.21;82.48
75699;BME280;64313;51.018;13.742;2022-11-18T09:19:00;98417.81;;;3.25;81.86
75699;BME280;64313;51.018;13.742;2022-11-18T09:21:26;98426.72;;;3.24;81.73
75699;BME280;64313;51.018;13.742;2022-11-18T09:23:52;98431.72;;;3.19;82.16
75699;BME280;64313;51.018;13.742;2022-11-18T09:26:19;98431.84;;;3.11;81.96
75699;BME280;64313;51.018;13.742;2022-11-18T09:28:45;98439.13;;;3.09;81.75
75699;BME280;64313;51.018;13.742;2022-11-18T09:31:13;98431.75;;;3.04;82.07
75699;BME280;64313;51.018;13.742;2022-11-18T09:33:39;98432.75;;;3.03;82.30
75699;BME280;64313;51.018;13.742;2022-11-18T09:36:09;98430.38;;;3.09;82.22
75699;BME280;64313;51.018;13.742;2022-11-18T09:38:35;98436.47;;;3.09;81.10
75699;BME280;64313;51.018;13.742;2022-11-18T09:44:09;98438.78;;;2.97;80.98
75699;BME280;64313;51.018;13.742;2022-11-18T09:49:32;98451.22;;;2.89;81.88
75699;BME280;64313;51.018;13.742;2022-11-18T09:52:02;98451.06;;;2.90;81.42
75699;BME280;64313;51.018;13.742;2022-11-18T09:54:34;98461.78;;;2.89;81.90
75699;BME280;64313;51.018;13.742;2022-11-18T09:57:00;98470.88;;;2.86;81.63
75699;BME280;64313;51.018;13.742;2022-11-18T09:59:29;98469.25;;;2.85;82.17
75699;BME280;64313;51.018;13.742;2022-11-18T10:02:02;98473.88;;;2.83;82.04
75699;BME280;64313;51.018;13.742;2022-11-18T10:04:30;98476.13;;;2.71;81.20
75699;BME280;64313;51.018;13.742;2022-11-18T10:06:56;98476.50;;;2.68;81.36
75699;BME280;64313;51.018;13.742;2022-11-18T10:12:44;98479.03;;;2.62;80.33
75699;BME280;64313;51.018;13.742;2022-11-18T10:15:47;98480.63;;;2.48;80.30
75699;BME280;64313;51.018;13.742;2022-11-18T10:18:24;98494.53;;;2.42;80.13
75699;BME280;64313;51.018;13.742;2022-11-18T10:21:00;98492.88;;;2.41;80.19
75699;BME280;64313;51.018;13.742;2022-11-18T10:23:33;98498.31;;;2.39;80.31
75699;BME280;64313;51.018;13.742;2022-11-18T10:25:59;98497.22;;;2.33;79.82
75699;BME280;64313;51.018;13.742;2022-11-18T10:28:29;98501.56;;;2.26;79.92
75699;BME280;64313;51.018;13.742;2022-11-18T10:31:08;98500.81;;;2.17;80.22
75699;BME280;64313;51.018;13.742;2022-11-18T10:33:34;98503.16;;;2.12;81.11
75699;BME280;64313;51.018;13.742;2022-11-18T10:38:37;98513.50;;;2.14;81.47
75699;BME280;64313;51.018;13.742;2022-11-18T10:41:09;98511.72;;;2.14;81.52
75699;BME280;64313;51.018;13.742;2022-11-18T10:43:50;98510.00;;;2.22;81.06
75699;BME280;64313;51.018;13.742;2022-11-18T10:46:35;98517.38;;;2.26;80.82
75699;BME280;64313;51.018;13.742;2022-11-18T10:51:39;98516.28;;;2.21;80.14
75699;BME280;64313;51.018;13.742;2022-11-18T10:56:50;98516.78;;;2.16;80.39
75699;BME280;64313;51.018;13.742;2022-11-18T11:04:25;98545.59;;;1.94;81.11
75699;BME280;64313;51.018;13.742;2022-11-18T11:06:51;98548.91;;;1.88;80.93
75699;BME280;64313;51.018;13.742;2022-11-18T11:09:27;98541.66;;;1.90;81.36
75699;BME280;64313;51.018;13.742;2022-11-18T11:17:14;98557.31;;;1.92;81.95
75699;BME280;64313;51.018;13.742;2022-11-18T11:22:28;98570.63;;;1.90;81.58
75699;BME280;64313;51.018;13.742;2022-11-18T11:24:54;98565.72;;;1.87;82.12
75699;BME280;64313;51.018;13.742;2022-11-18T11:29:58;98572.81;;;1.87;81.81
75699;BME280;64313;51.018;13.742;2022-11-18T11:35:17;98578.59;;;1.82;81.59
75699;BME280;64313;51.018;13.742;2022-11-18T11:38:17;98577.56;;;1.83;80.72
75699;BME280;64313;51.018;13.742;2022-11-18T11:40:59;98581.53;;;1.87;81.04
75699;BME280;64313;51.018;13.742;2022-11-18T11:49:56;98585.25;;;1.62;81.26
75699;BME280;64313;51.018;13.742;2022-11-18T11:52:33;98580.44;;;1.65;81.30
75699;BME280;64313;51.018;13.742;2022-11-18T11:55:17;98590.00;;;1.66;81.02
75699;BME280;64313;51.018;13.742;2022-11-18T11:57:56;98589.84;;;1.60;80.66
75699;BME280;64313;51.018;13.742;2022-11-18T12:00:25;98595.28;;;1.58;81.10
75699;BME280;64313;51.018;13.742;2022-11-18T12:03:08;98593.34;;;1.52;81.80
75699;BME280;64313;51.018;13.742;2022-11-18T12:05:38;98594.31;;;1.51;81.88
75699;BME280;64313;51.018;13.742;2022-11-18T12:08:30;98594.81;;;1.55;80.23
75699;BME280;64313;51.018;13.742;2022-11-18T12:11:04;98589.03;;;1.51;80.92
75699;BME280;64313;51.018;13.742;2022-11-18T12:26:45;98609.66;;;1.39;80.63
75699;BME280;64313;51.018;13.742;2022-11-18T12:31:50;98610.97;;;1.43;80.46
75699;BME280;64313;51.018;13.742;2022-11-18T12:34:30;98619.19;;;1.40;79.62
75699;BME280;64313;51.018;13.742;2022-11-18T12:36:56;98622.50;;;1.34;80.53
75699;BME280;64313;51.018;13.742;2022-11-18T12:44:34;98628.44;;;1.28;80.77
75699;BME280;64313;51.018;13.742;2022-11-18T12:47:02;98633.88;;;1.26;80.61
75699;BME280;64313;51.018;13.742;2022-11-18T12:52:00;98635.53;;;1.19;80.63
75699;BME280;64313;51.018;13.742;2022-11-18T12:56:58;98636.00;;;1.31;79.51
75699;BME280;64313;51.018;13.742;2022-11-18T12:59:30;98643.22;;;1.21;79.97
75699;BME280;64313;51.018;13.742;2022-11-18T13:02:05;98646.06;;;1.11;79.70
75699;BME280;64313;51.018;13.742;2022-11-18T13:04:32;98643.44;;;1.11;79.65
75699;BME280;64313;51.018;13.742;2022-11-18T13:06:58;98652.47;;;1.08;79.64
75699;BME280;64313;51.018;13.742;2022-11-18T13:09:25;98651.16;;;0.96;79.81
75699;BME280;64313;51.018;13.742;2022-11-18T13:11:55;98663.31;;;0.97;79.58
75699;BME280;64313;51.018;13.742;2022-11-18T13:14:34;98657.09;;;0.98;80.26
75699;BME280;64313;51.018;13.742;2022-11-18T13:17:32;98660.19;;;1.02;79.67
75699;BME280;64313;51.018;13.742;2022-11-18T13:22:53;98666.28;;;0.86;79.86
75699;BME280;64313;51.018;13.742;2022-11-18T13:25:38;98671.53;;;0.86;79.43
75699;BME280;64313;51.018;13.742;2022-11-18T13:28:37;98669.41;;;0.81;80.00
75699;BME280;64313;51.018;13.742;2022-11-18T13:31:20;98674.47;;;0.83;79.54
75699;BME280;64313;51.018;13.742;2022-11-18T13:33:49;98675.81;;;0.79;78.77
75699;BME280;64313;51.018;13.742;2022-11-18T13:36:24;98675.28;;;0.75;80.01
75699;BME280;64313;51.018;13.742;2022-11-18T13:39:02;98683.34;;;0.74;79.96
75699;BME280;64313;51.018;13.742;2022-11-18T13:41:30;98690.56;;;0.72;80.20
75699;BME280;64313;51.018;13.742;2022-11-18T13:44:23;98694.69;;;0.74;79.84
75699;BME280;64313;51.018;13.742;2022-11-18T13:49:46;98703.06;;;0.78;80.13
75699;BME280;64313;51.018;13.742;2022-11-18T13:52:20;98710.97;;;0.78;79.82
75699;BME280;64313;51.018;13.742;2022-11-18T13:54:49;98711.97;;;0.77;80.20
75699;BME280;64313;51.018;13.742;2022-11-18T13:57:16;98713.09;;;0.74;79.18
75699;BME280;64313;51.018;13.742;2022-11-18T13:59:45;98709.81;;;0.72;79.69
75699;BME280;64313;51.018;13.742;2022-11-18T14:02:12;98727.19;;;0.65;79.11
75699;BME280;64313;51.018;13.742;2022-11-18T14:04:48;98736.72;;;0.58;79.39
75699;BME280;64313;51.018;13.742;2022-11-18T14:07:21;98719.78;;;0.60;80.01
75699;BME280;64313;51.018;13.742;2022-11-18T14:09:53;98736.72;;;0.58;79.24
75699;BME280;64313;51.018;13.742;2022-11-18T14:12:33;98732.59;;;0.55;78.88
75699;BME280;64313;51.018;13.742;2022-11-18T14:15:20;98736.19;;;0.46;79.64
75699;BME280;64313;51.018;13.742;2022-11-18T14:17:54;98751.63;;;0.41;80.13
75699;BME280;64313;51.018;13.742;2022-11-18T14:20:21;98757.03;;;0.39;80.67
75699;BME280;64313;51.018;13.742;2022-11-18T14:22:58;98757.69;;;0.41;79.06
75699;BME280;64313;51.018;13.742;2022-11-18T14:25:30;98766.06;;;0.45;79.05
75699;BME280;64313;51.018;13.742;2022-11-18T14:28:10;98762.94;;;0.41;76.76
75699;BME280;64313;51.018;13.742;2022-11-18T14:30:38;98765.72;;;0.40;77.77
75699;BME280;64313;51.018;13.742;2022-11-18T14:33:18;98771.31;;;0.37;77.77
75699;BME280;64313;51.018;13.742;2022-11-18T14:36:00;98780.34;;;0.42;77.07
75699;BME280;64313;51.018;13.742;2022-11-18T14:41:03;98772.91;;;0.30;76.97
75699;BME280;64313;51.018;13.742;2022-11-18T14:43:29;98766.97;;;0.28;76.17